Mildura, Victoria

6:57 PM AEDT on March 27, 2015 (GMT +1100)
Mildura | | Change Station
CLOSE
Current Station
Personal Weather Station
Location: Mildura, VICTORIA
Elevation: 171 ft
Nearby Weather Stations

Elev 171 ft 34.22 °S, 142.14 °E | Updated 7 minutes ago

Clear
Clear
67.3 °F
Feels Like 67.3 °F
N
8.0
Wind Variable Wind from SSW
Gusts 12.0 mph

Today
High -- | Low -- °F
--% Chance of Precip.
Yesterday
High -- | Low -- °F
Precip. -- in
7:39 AM 7:34 PM
Waxing Crescent, 50% visible
Pressure 30.24 in
Visibility 6.2 miles
Clouds
Dew Point 45 °F
Humidity 45%
Rainfall 0.00 in
Snow Depth Not available.
UV Not available.
Pollen Not available.
Air Quality Not available.
Flu Activity Not available.
METAR YMIA 270700Z AUTO 19008KT 9999 // NCD 21/05 Q1024

More Conditions Fewer Conditions

Pressure 30.24 in
Visibility 6.2 miles
Clouds
Dew Point 45 °F
Humidity 45%
Rainfall 0.00 in
Snow Depth Not available.
UV Not available.
Pollen Not available.
Air Quality Not available.
Flu Activity Not available.
METAR YMIA 270700Z AUTO 19008KT 9999 // NCD 21/05 Q1024

More Conditions Fewer Conditions

10-Day Weather Forecast

Almanac

Astronomy

Mar. 27, 2015 Rise Set
Actual Time
Civil Twilight
Nautical Twilight
Astronomical Twilight
Moon
Length of Visible Light
Length of Day
Tomorrow will be .
, % of the Moon is Illuminated

Today's Extremes

Country Highs Country Lows

Community

WunderPhotos

Upload Photos

1,808,702 photos uploaded!

WunderBlogs® & News

Nearby

Air Quality

  Air Quality AQ Index Pollutant
Not available.

Snow Depth

Station Depth Elevation

Earthquake Activity

City Distance Mag. Time & Date
Minimum magnitude displayed is 2.5.

Coastal Water Temperatures

Place Temperature

Stations

Nearby Weather Stations

Station Location Temp. Windchill Dew Point Humidity Wind Precip. Elev Updated Type